sensor_id;sensor_type;location;lat;lon;timestamp;pressure;altitude;pressure_sealevel;temperature;humidity
15056;BME280;7626;42.674;23.284;2023-01-26T00:01:53;95209.38;;;4.37;59.91
15056;BME280;7626;42.674;23.284;2023-01-26T00:04:22;95211.94;;;4.37;59.76
15056;BME280;7626;42.674;23.284;2023-01-26T00:06:48;95198.22;;;4.38;58.72
15056;BME280;7626;42.674;23.284;2023-01-26T00:09:17;95199.78;;;4.42;59.44
15056;BME280;7626;42.674;23.284;2023-01-26T00:11:44;95200.09;;;4.35;59.45
15056;BME280;7626;42.674;23.284;2023-01-26T00:14:12;95197.53;;;4.35;59.11
15056;BME280;7626;42.674;23.284;2023-01-26T00:16:39;95216.50;;;4.31;59.08
15056;BME280;7626;42.674;23.284;2023-01-26T00:19:06;95206.91;;;4.36;59.02
15056;BME280;7626;42.674;23.284;2023-01-26T00:21:35;95213.75;;;4.35;59.44
15056;BME280;7626;42.674;23.284;2023-01-26T00:24:02;95206.47;;;4.26;59.19
15056;BME280;7626;42.674;23.284;2023-01-26T00:26:30;95207.34;;;4.25;58.89
15056;BME280;7626;42.674;23.284;2023-01-26T00:28:58;95206.91;;;4.15;59.57
15056;BME280;7626;42.674;23.284;2023-01-26T00:31:27;95193.13;;;4.18;58.84
15056;BME280;7626;42.674;23.284;2023-01-26T00:33:54;95175.44;;;4.12;58.96
15056;BME280;7626;42.674;23.284;2023-01-26T00:36:22;95181.19;;;4.17;59.18
15056;BME280;7626;42.674;23.284;2023-01-26T00:38:50;95174.75;;;4.08;59.17
15056;BME280;7626;42.674;23.284;2023-01-26T00:41:17;95180.63;;;4.10;59.11
15056;BME280;7626;42.674;23.284;2023-01-26T00:44:01;95169.81;;;4.03;58.98
15056;BME280;7626;42.674;23.284;2023-01-26T00:46:28;95165.50;;;4.04;59.08
15056;BME280;7626;42.674;23.284;2023-01-26T00:48:55;95180.81;;;4.05;59.18
15056;BME280;7626;42.674;23.284;2023-01-26T00:51:23;95167.81;;;4.10;58.72
15056;BME280;7626;42.674;23.284;2023-01-26T00:53:51;95168.63;;;4.11;58.68
15056;BME280;7626;42.674;23.284;2023-01-26T00:56:17;95188.50;;;4.05;58.92
15056;BME280;7626;42.674;23.284;2023-01-26T00:58:44;95162.09;;;4.03;59.32
15056;BME280;7626;42.674;23.284;2023-01-26T01:01:12;95156.72;;;4.10;59.07
15056;BME280;7626;42.674;23.284;2023-01-26T01:03:41;95161.28;;;4.03;58.56
15056;BME280;7626;42.674;23.284;2023-01-26T01:06:09;95157.03;;;4.02;58.92
15056;BME280;7626;42.674;23.284;2023-01-26T01:08:35;95155.22;;;4.04;58.99
15056;BME280;7626;42.674;23.284;2023-01-26T01:11:07;95161.06;;;4.08;59.27
15056;BME280;7626;42.674;23.284;2023-01-26T01:13:37;95151.78;;;4.05;58.50
15056;BME280;7626;42.674;23.284;2023-01-26T01:16:05;95151.78;;;4.05;58.69
15056;BME280;7626;42.674;23.284;2023-01-26T01:18:33;95149.97;;;4.07;59.21
15056;BME280;7626;42.674;23.284;2023-01-26T01:21:05;95152.41;;;4.10;58.58
15056;BME280;7626;42.674;23.284;2023-01-26T01:23:32;95139.91;;;4.02;58.89
15056;BME280;7626;42.674;23.284;2023-01-26T01:25:59;95148.28;;;4.06;58.48
15056;BME280;7626;42.674;23.284;2023-01-26T01:28:28;95152.72;;;4.02;58.08
15056;BME280;7626;42.674;23.284;2023-01-26T01:30:55;95146.78;;;4.02;57.97
15056;BME280;7626;42.674;23.284;2023-01-26T01:33:22;95145.94;;;4.01;58.64
15056;BME280;7626;42.674;23.284;2023-01-26T01:35:55;95136.53;;;4.02;57.89
15056;BME280;7626;42.674;23.284;2023-01-26T01:38:24;95146.66;;;4.05;58.49
15056;BME280;7626;42.674;23.284;2023-01-26T01:40:52;95137.22;;;4.05;57.96
15056;BME280;7626;42.674;23.284;2023-01-26T01:43:20;95133.31;;;3.97;58.21
15056;BME280;7626;42.674;23.284;2023-01-26T01:45:49;95137.69;;;3.95;58.22
15056;BME280;7626;42.674;23.284;2023-01-26T01:48:24;95131.19;;;4.07;58.38
15056;BME280;7626;42.674;23.284;2023-01-26T01:50:55;95135.03;;;3.96;57.70
15056;BME280;7626;42.674;23.284;2023-01-26T01:53:26;95129.66;;;4.02;58.12
15056;BME280;7626;42.674;23.284;2023-01-26T01:55:57;95123.63;;;4.03;57.94
15056;BME280;7626;42.674;23.284;2023-01-26T01:58:26;95122.00;;;4.01;57.83
15056;BME280;7626;42.674;23.284;2023-01-26T02:00:57;95121.69;;;4.09;58.49
15056;BME280;7626;42.674;23.284;2023-01-26T02:03:26;95128.69;;;4.05;57.70
15056;BME280;7626;42.674;23.284;2023-01-26T02:05:58;95131.88;;;4.10;58.27
15056;BME280;7626;42.674;23.284;2023-01-26T02:08:31;95111.63;;;4.04;57.86
15056;BME280;7626;42.674;23.284;2023-01-26T02:11:04;95116.94;;;3.99;57.85
15056;BME280;7626;42.674;23.284;2023-01-26T02:13:33;95114.31;;;4.01;57.91
15056;BME280;7626;42.674;23.284;2023-01-26T02:16:03;95113.69;;;3.96;57.58
15056;BME280;7626;42.674;23.284;2023-01-26T02:18:32;95105.16;;;3.95;57.71
15056;BME280;7626;42.674;23.284;2023-01-26T02:21:01;95093.72;;;4.02;58.13
15056;BME280;7626;42.674;23.284;2023-01-26T02:23:41;95092.28;;;3.97;57.51
15056;BME280;7626;42.674;23.284;2023-01-26T02:26:12;95078.59;;;3.96;57.86
15056;BME280;7626;42.674;23.284;2023-01-26T02:28:40;95079.47;;;3.97;58.12
15056;BME280;7626;42.674;23.284;2023-01-26T02:31:08;95074.19;;;4.00;58.51
15056;BME280;7626;42.674;23.284;2023-01-26T02:33:36;95066.44;;;4.01;58.05
15056;BME280;7626;42.674;23.284;2023-01-26T02:36:05;95082.09;;;3.95;57.44
15056;BME280;7626;42.674;23.284;2023-01-26T02:38:38;95066.84;;;3.92;57.58
15056;BME280;7626;42.674;23.284;2023-01-26T02:41:07;95069.41;;;3.92;57.76
15056;BME280;7626;42.674;23.284;2023-01-26T02:43:38;95066.84;;;3.92;58.22
15056;BME280;7626;42.674;23.284;2023-01-26T02:46:04;95066.75;;;3.94;57.46
15056;BME280;7626;42.674;23.284;2023-01-26T02:48:31;95068.69;;;3.89;57.98
15056;BME280;7626;42.674;23.284;2023-01-26T02:51:17;95054.34;;;3.84;57.59
15056;BME280;7626;42.674;23.284;2023-01-26T02:53:44;95060.94;;;3.90;57.60
15056;BME280;7626;42.674;23.284;2023-01-26T02:56:10;95057.75;;;3.85;58.08
15056;BME280;7626;42.674;23.284;2023-01-26T02:58:38;95050.06;;;3.85;58.10
15056;BME280;7626;42.674;23.284;2023-01-26T03:01:04;95035.75;;;3.79;57.89
15056;BME280;7626;42.674;23.284;2023-01-26T03:03:31;95036.44;;;3.83;58.29
15056;BME280;7626;42.674;23.284;2023-01-26T03:06:07;95041.31;;;3.70;57.51
15056;BME280;7626;42.674;23.284;2023-01-26T03:08:35;95031.63;;;3.77;57.45
15056;BME280;7626;42.674;23.284;2023-01-26T03:11:03;95036.88;;;3.74;58.12
15056;BME280;7626;42.674;23.284;2023-01-26T03:13:31;95040.41;;;3.71;57.81
15056;BME280;7626;42.674;23.284;2023-01-26T03:15:59;95037.56;;;3.77;57.99
15056;BME280;7626;42.674;23.284;2023-01-26T03:18:32;95023.06;;;3.76;57.66
15056;BME280;7626;42.674;23.284;2023-01-26T03:21:17;95007.75;;;3.75;57.68
15056;BME280;7626;42.674;23.284;2023-01-26T03:24:01;95017.19;;;3.74;57.80
15056;BME280;7626;42.674;23.284;2023-01-26T03:26:46;95007.50;;;3.62;57.58
15056;BME280;7626;42.674;23.284;2023-01-26T03:29:32;95007.97;;;3.70;58.02
15056;BME280;7626;42.674;23.284;2023-01-26T03:32:00;95012.94;;;3.73;57.54
15056;BME280;7626;42.674;23.284;2023-01-26T03:34:28;95010.53;;;3.70;57.82
15056;BME280;7626;42.674;23.284;2023-01-26T03:36:55;95005.69;;;3.64;58.09
15056;BME280;7626;42.674;23.284;2023-01-26T03:39:22;95001.06;;;3.72;57.89
15056;BME280;7626;42.674;23.284;2023-01-26T03:42:06;95000.13;;;3.73;58.23
15056;BME280;7626;42.674;23.284;2023-01-26T03:44:51;95008.75;;;3.72;57.92
15056;BME280;7626;42.674;23.284;2023-01-26T03:47:37;95000.97;;;3.74;57.48
15056;BME280;7626;42.674;23.284;2023-01-26T03:50:22;95011.38;;;3.71;57.88
15056;BME280;7626;42.674;23.284;2023-01-26T03:53:14;94995.44;;;3.64;57.86
15056;BME280;7626;42.674;23.284;2023-01-26T03:55:59;95006.78;;;3.58;57.58
15056;BME280;7626;42.674;23.284;2023-01-26T03:58:48;94985.38;;;3.59;58.00
15056;BME280;7626;42.674;23.284;2023-01-26T04:01:15;94988.69;;;3.61;57.41
15056;BME280;7626;42.674;23.284;2023-01-26T04:03:47;94991.19;;;3.63;58.06
15056;BME280;7626;42.674;23.284;2023-01-26T04:06:31;94982.63;;;3.64;57.90
15056;BME280;7626;42.674;23.284;2023-01-26T04:09:17;94984.31;;;3.63;57.86
15056;BME280;7626;42.674;23.284;2023-01-26T04:11:46;94986.97;;;3.62;57.99
15056;BME280;7626;42.674;23.284;2023-01-26T04:14:14;94973.19;;;3.64;57.72
15056;BME280;7626;42.674;23.284;2023-01-26T04:16:59;94970.75;;;3.61;58.46
15056;BME280;7626;42.674;23.284;2023-01-26T04:19:45;94969.25;;;3.57;57.91
15056;BME280;7626;42.674;23.284;2023-01-26T04:22:34;94936.81;;;3.56;58.27
15056;BME280;7626;42.674;23.284;2023-01-26T04:25:09;94952.38;;;3.52;58.52
15056;BME280;7626;42.674;23.284;2023-01-26T04:27:36;94934.25;;;3.56;58.11
15056;BME280;7626;42.674;23.284;2023-01-26T04:30:06;94931.69;;;3.56;58.45
15056;BME280;7626;42.674;23.284;2023-01-26T04:32:33;94940.34;;;3.54;58.02
15056;BME280;7626;42.674;23.284;2023-01-26T04:35:08;94935.78;;;3.60;58.58
15056;BME280;7626;42.674;23.284;2023-01-26T04:37:36;94931.63;;;3.58;58.26
15056;BME280;7626;42.674;23.284;2023-01-26T04:40:05;94933.69;;;3.49;58.08
15056;BME280;7626;42.674;23.284;2023-01-26T04:42:32;94927.69;;;3.50;58.48
15056;BME280;7626;42.674;23.284;2023-01-26T04:44:59;94954.81;;;3.55;58.03
15056;BME280;7626;42.674;23.284;2023-01-26T04:47:27;94948.03;;;3.54;58.39
15056;BME280;7626;42.674;23.284;2023-01-26T04:49:55;94959.25;;;3.51;58.15
15056;BME280;7626;42.674;23.284;2023-01-26T04:52:23;94954.69;;;3.58;58.25
15056;BME280;7626;42.674;23.284;2023-01-26T04:54:49;94951.22;;;3.59;58.54
15056;BME280;7626;42.674;23.284;2023-01-26T04:57:16;94946.31;;;3.54;57.94
15056;BME280;7626;42.674;23.284;2023-01-26T04:59:44;94958.19;;;3.55;58.72
15056;BME280;7626;42.674;23.284;2023-01-26T05:02:12;94953.94;;;3.56;57.81
15056;BME280;7626;42.674;23.284;2023-01-26T05:04:40;94956.50;;;3.56;58.45
15056;BME280;7626;42.674;23.284;2023-01-26T05:07:07;94940.25;;;3.55;57.98
15056;BME280;7626;42.674;23.284;2023-01-26T05:09:37;94940.25;;;3.55;57.81
15056;BME280;7626;42.674;23.284;2023-01-26T05:12:04;94949.13;;;3.48;58.10
15056;BME280;7626;42.674;23.284;2023-01-26T05:14:45;94943.19;;;3.47;58.03
15056;BME280;7626;42.674;23.284;2023-01-26T05:17:14;94949.88;;;3.50;57.90
15056;BME280;7626;42.674;23.284;2023-01-26T05:19:42;94943.88;;;3.51;58.31
15056;BME280;7626;42.674;23.284;2023-01-26T05:22:11;94944.06;;;3.46;57.96
15056;BME280;7626;42.674;23.284;2023-01-26T05:24:41;94934.63;;;3.47;58.06
15056;BME280;7626;42.674;23.284;2023-01-26T05:27:11;94940.44;;;3.52;57.97
15056;BME280;7626;42.674;23.284;2023-01-26T05:29:52;94934.50;;;3.50;57.96
15056;BME280;7626;42.674;23.284;2023-01-26T05:32:34;94925.03;;;3.52;58.03
15056;BME280;7626;42.674;23.284;2023-01-26T05:35:04;94937.00;;;3.52;58.18
15056;BME280;7626;42.674;23.284;2023-01-26T05:37:32;94927.69;;;3.50;58.25
15056;BME280;7626;42.674;23.284;2023-01-26T05:40:01;94929.31;;;3.52;58.21
15056;BME280;7626;42.674;23.284;2023-01-26T05:42:28;94927.38;;;3.57;58.18
15056;BME280;7626;42.674;23.284;2023-01-26T05:44:56;94921.69;;;3.50;57.91
15056;BME280;7626;42.674;23.284;2023-01-26T05:47:23;94935.28;;;3.52;58.05
15056;BME280;7626;42.674;23.284;2023-01-26T05:49:51;94924.97;;;3.54;58.06
15056;BME280;7626;42.674;23.284;2023-01-26T05:52:19;94923.84;;;3.59;58.16
15056;BME280;7626;42.674;23.284;2023-01-26T05:54:49;94921.97;;;3.63;57.86
15056;BME280;7626;42.674;23.284;2023-01-26T05:57:17;94938.41;;;3.59;57.44
15056;BME280;7626;42.674;23.284;2023-01-26T05:59:45;94931.63;;;3.58;58.44
15056;BME280;7626;42.674;23.284;2023-01-26T06:02:12;94932.44;;;3.58;58.05
15056;BME280;7626;42.674;23.284;2023-01-26T06:04:39;94934.09;;;3.59;58.24
15056;BME280;7626;42.674;23.284;2023-01-26T06:07:20;94937.06;;;3.50;57.85
15056;BME280;7626;42.674;23.284;2023-01-26T06:09:46;94929.25;;;3.53;57.78
15056;BME280;7626;42.674;23.284;2023-01-26T06:12:14;94922.13;;;3.60;58.29
15056;BME280;7626;42.674;23.284;2023-01-26T06:14:45;94924.75;;;3.58;57.99
15056;BME280;7626;42.674;23.284;2023-01-26T06:17:14;94911.72;;;3.63;57.69
15056;BME280;7626;42.674;23.284;2023-01-26T06:19:44;94917.41;;;3.69;58.08
15056;BME280;7626;42.674;23.284;2023-01-26T06:22:11;94919.28;;;3.66;58.37
15056;BME280;7626;42.674;23.284;2023-01-26T06:24:40;94922.47;;;3.71;57.59
15056;BME280;7626;42.674;23.284;2023-01-26T06:27:11;94925.03;;;3.71;57.66
15056;BME280;7626;42.674;23.284;2023-01-26T06:29:41;94912.28;;;3.69;57.94
15056;BME280;7626;42.674;23.284;2023-01-26T06:32:11;94906.59;;;3.63;57.09
15056;BME280;7626;42.674;23.284;2023-01-26T06:34:38;94906.94;;;3.74;59.39
15056;BME280;7626;42.674;23.284;2023-01-26T06:37:05;94893.84;;;3.61;58.90
15056;BME280;7626;42.674;23.284;2023-01-26T06:39:33;94895.53;;;3.62;58.02
15056;BME280;7626;42.674;23.284;2023-01-26T06:42:03;94903.97;;;3.64;57.75
15056;BME280;7626;42.674;23.284;2023-01-26T06:44:30;94904.09;;;3.61;57.46
15056;BME280;7626;42.674;23.284;2023-01-26T06:46:58;94906.88;;;3.57;57.63
15056;BME280;7626;42.674;23.284;2023-01-26T06:49:26;94905.03;;;3.60;57.31
15056;BME280;7626;42.674;23.284;2023-01-26T06:51:58;94907.28;;;3.66;57.34
15056;BME280;7626;42.674;23.284;2023-01-26T06:54:25;94895.94;;;3.72;57.61
15056;BME280;7626;42.674;23.284;2023-01-26T06:56:52;94894.31;;;3.69;57.34
15056;BME280;7626;42.674;23.284;2023-01-26T06:59:18;94886.84;;;3.65;57.66
15056;BME280;7626;42.674;23.284;2023-01-26T07:01:48;94890.47;;;3.61;57.66
15056;BME280;7626;42.674;23.284;2023-01-26T07:04:16;94898.50;;;3.72;57.22
15056;BME280;7626;42.674;23.284;2023-01-26T07:06:49;94899.53;;;3.68;57.02
15056;BME280;7626;42.674;23.284;2023-01-26T07:09:20;94883.53;;;3.63;57.17
15056;BME280;7626;42.674;23.284;2023-01-26T07:11:47;94875.34;;;3.74;57.17
15056;BME280;7626;42.674;23.284;2023-01-26T07:14:14;94879.63;;;3.73;57.60
15056;BME280;7626;42.674;23.284;2023-01-26T07:16:43;94878.94;;;3.69;57.20
15056;BME280;7626;42.674;23.284;2023-01-26T07:19:12;94882.06;;;3.76;56.85
15056;BME280;7626;42.674;23.284;2023-01-26T07:21:39;94877.06;;;3.73;57.36
15056;BME280;7626;42.674;23.284;2023-01-26T07:24:09;94884.00;;;3.71;57.33
15056;BME280;7626;42.674;23.284;2023-01-26T07:26:36;94874.22;;;3.79;57.04
15056;BME280;7626;42.674;23.284;2023-01-26T07:29:02;94870.78;;;3.80;57.09
15056;BME280;7626;42.674;23.284;2023-01-26T07:31:29;94881.84;;;3.81;57.62
15056;BME280;7626;42.674;23.284;2023-01-26T07:33:57;94869.09;;;3.79;57.10
15056;BME280;7626;42.674;23.284;2023-01-26T07:36:25;94862.09;;;3.83;57.52
15056;BME280;7626;42.674;23.284;2023-01-26T07:38:53;94882.47;;;3.86;57.14
15056;BME280;7626;42.674;23.284;2023-01-26T07:41:24;94861.19;;;3.84;57.06
15056;BME280;7626;42.674;23.284;2023-01-26T07:43:51;94856.06;;;3.84;57.34
15056;BME280;7626;42.674;23.284;2023-01-26T07:46:22;94867.13;;;3.84;56.85
15056;BME280;7626;42.674;23.284;2023-01-26T07:48:49;94863.75;;;3.84;57.08
15056;BME280;7626;42.674;23.284;2023-01-26T07:51:17;94867.06;;;3.86;57.65
15056;BME280;7626;42.674;23.284;2023-01-26T07:53:52;94860.44;;;3.82;57.46
15056;BME280;7626;42.674;23.284;2023-01-26T07:56:21;94866.31;;;3.84;57.57
15056;BME280;7626;42.674;23.284;2023-01-26T07:58:50;94873.34;;;3.80;57.25
15056;BME280;7626;42.674;23.284;2023-01-26T08:01:24;94869.69;;;3.84;57.62
15056;BME280;7626;42.674;23.284;2023-01-26T08:03:51;94862.22;;;3.80;57.24
15056;BME280;7626;42.674;23.284;2023-01-26T08:06:19;94854.69;;;3.77;57.40
15056;BME280;7626;42.674;23.284;2023-01-26T08:08:46;94860.22;;;3.86;57.17
15056;BME280;7626;42.674;23.284;2023-01-26T08:11:18;94863.00;;;3.82;57.18
15056;BME280;7626;42.674;23.284;2023-01-26T08:13:51;94853.63;;;3.81;56.93
15056;BME280;7626;42.674;23.284;2023-01-26T08:16:17;94851.97;;;3.80;56.81
15056;BME280;7626;42.674;23.284;2023-01-26T08:18:45;94849.88;;;3.88;57.30
15056;BME280;7626;42.674;23.284;2023-01-26T08:21:13;94844.00;;;3.86;57.02
15056;BME280;7626;42.674;23.284;2023-01-26T08:23:42;94845.66;;;3.87;56.91
15056;BME280;7626;42.674;23.284;2023-01-26T08:26:12;94840.75;;;3.82;56.65
15056;BME280;7626;42.674;23.284;2023-01-26T08:28:39;94842.03;;;3.91;57.12
15056;BME280;7626;42.674;23.284;2023-01-26T08:31:10;94845.59;;;3.89;57.15
15056;BME280;7626;42.674;23.284;2023-01-26T08:33:39;94839.53;;;3.90;56.73
15056;BME280;7626;42.674;23.284;2023-01-26T08:36:09;94833.31;;;3.95;57.20
15056;BME280;7626;42.674;23.284;2023-01-26T08:38:37;94837.69;;;3.93;57.06
15056;BME280;7626;42.674;23.284;2023-01-26T08:41:05;94823.72;;;3.99;57.07
15056;BME280;7626;42.674;23.284;2023-01-26T08:43:34;94817.84;;;3.97;56.82
15056;BME280;7626;42.674;23.284;2023-01-26T08:46:01;94824.47;;;4.01;56.96
15056;BME280;7626;42.674;23.284;2023-01-26T08:48:31;94828.78;;;4.00;56.89
15056;BME280;7626;42.674;23.284;2023-01-26T08:50:59;94833.75;;;4.03;56.93
15056;BME280;7626;42.674;23.284;2023-01-26T08:53:29;94841.31;;;4.07;56.55
15056;BME280;7626;42.674;23.284;2023-01-26T08:55:56;94845.84;;;4.01;56.70
15056;BME280;7626;42.674;23.284;2023-01-26T08:58:22;94841.25;;;4.08;56.86
15056;BME280;7626;42.674;23.284;2023-01-26T09:00:49;94826.22;;;4.00;56.11
15056;BME280;7626;42.674;23.284;2023-01-26T09:03:16;94827.56;;;4.08;56.05
15056;BME280;7626;42.674;23.284;2023-01-26T09:05:45;94835.34;;;4.06;56.27
15056;BME280;7626;42.674;23.284;2023-01-26T09:08:11;94833.69;;;4.05;56.42
15056;BME280;7626;42.674;23.284;2023-01-26T09:10:38;94825.16;;;4.04;56.40
15056;BME280;7626;42.674;23.284;2023-01-26T09:13:06;94842.00;;;4.10;56.44
15056;BME280;7626;42.674;23.284;2023-01-26T09:15:36;94830.97;;;4.08;56.43
15056;BME280;7626;42.674;23.284;2023-01-26T09:18:04;94829.91;;;4.12;56.11
15056;BME280;7626;42.674;23.284;2023-01-26T09:20:32;94823.03;;;4.13;56.41
15056;BME280;7626;42.674;23.284;2023-01-26T09:23:00;94818.75;;;4.13;56.35
15056;BME280;7626;42.674;23.284;2023-01-26T09:25:28;94821.63;;;4.07;56.07
15056;BME280;7626;42.674;23.284;2023-01-26T09:27:56;94818.09;;;4.10;55.86
15056;BME280;7626;42.674;23.284;2023-01-26T09:30:25;94811.06;;;4.13;56.24
15056;BME280;7626;42.674;23.284;2023-01-26T09:32:57;94814.50;;;4.12;56.13
15056;BME280;7626;42.674;23.284;2023-01-26T09:35:25;94799.13;;;4.12;55.80
15056;BME280;7626;42.674;23.284;2023-01-26T09:37:52;94777.56;;;4.16;56.14
15056;BME280;7626;42.674;23.284;2023-01-26T09:40:28;94790.59;;;4.12;56.33
15056;BME280;7626;42.674;23.284;2023-01-26T09:43:06;94795.59;;;4.15;56.37
15056;BME280;7626;42.674;23.284;2023-01-26T09:45:40;94800.56;;;4.18;58.84
15056;BME280;7626;42.674;23.284;2023-01-26T09:48:19;94795.19;;;4.22;58.24
15056;BME280;7626;42.674;23.284;2023-01-26T09:50:53;94788.88;;;4.30;57.80
15056;BME280;7626;42.674;23.284;2023-01-26T09:53:25;94782.72;;;4.32;57.59
15056;BME280;7626;42.674;23.284;2023-01-26T09:55:54;94774.06;;;4.35;57.60
15056;BME280;7626;42.674;23.284;2023-01-26T09:58:28;94776.41;;;4.39;57.45
15056;BME280;7626;42.674;23.284;2023-01-26T10:01:00;94772.91;;;4.40;57.57
15056;BME280;7626;42.674;23.284;2023-01-26T10:03:33;94777.72;;;4.47;57.06
15056;BME280;7626;42.674;23.284;2023-01-26T10:06:10;94774.19;;;4.49;56.79
15056;BME280;7626;42.674;23.284;2023-01-26T10:08:42;94770.63;;;4.52;57.32
15056;BME280;7626;42.674;23.284;2023-01-26T10:11:16;94779.75;;;4.57;56.55
15056;BME280;7626;42.674;23.284;2023-01-26T10:13:56;94756.75;;;4.56;57.21
15056;BME280;7626;42.674;23.284;2023-01-26T10:16:28;94744.56;;;4.59;56.99
15056;BME280;7626;42.674;23.284;2023-01-26T10:19:00;94738.41;;;4.62;57.23
15056;BME280;7626;42.674;23.284;2023-01-26T10:21:35;94727.25;;;4.63;56.98
15056;BME280;7626;42.674;23.284;2023-01-26T10:24:09;94721.47;;;4.59;56.83
15056;BME280;7626;42.674;23.284;2023-01-26T10:26:52;94711.63;;;4.68;56.80
15056;BME280;7626;42.674;23.284;2023-01-26T10:29:22;94699.00;;;4.63;56.90
15056;BME280;7626;42.674;23.284;2023-01-26T10:31:49;94704.81;;;4.67;56.21
15056;BME280;7626;42.674;23.284;2023-01-26T10:34:22;94700.44;;;4.69;56.96
15056;BME280;7626;42.674;23.284;2023-01-26T10:36:54;94684.19;;;4.68;56.52
15056;BME280;7626;42.674;23.284;2023-01-26T10:39:27;94684.94;;;4.70;56.71
15056;BME280;7626;42.674;23.284;2023-01-26T10:41:57;94675.59;;;4.69;56.33
15056;BME280;7626;42.674;23.284;2023-01-26T10:44:31;94660.75;;;4.74;56.97
15056;BME280;7626;42.674;23.284;2023-01-26T10:47:13;94653.13;;;4.73;56.62
15056;BME280;7626;42.674;23.284;2023-01-26T10:49:41;94653.72;;;4.78;56.78
15056;BME280;7626;42.674;23.284;2023-01-26T10:52:16;94663.16;;;4.77;56.88
15056;BME280;7626;42.674;23.284;2023-01-26T10:54:45;94642.22;;;4.85;56.80
15056;BME280;7626;42.674;23.284;2023-01-26T10:57:25;94643.94;;;4.85;57.26
15056;BME280;7626;42.674;23.284;2023-01-26T10:59:56;94640.38;;;4.87;56.43
15056;BME280;7626;42.674;23.284;2023-01-26T11:02:34;94635.72;;;4.94;56.88
15056;BME280;7626;42.674;23.284;2023-01-26T11:05:14;94630.75;;;4.91;56.88
15056;BME280;7626;42.674;23.284;2023-01-26T11:07:44;94604.81;;;4.95;56.22
15056;BME280;7626;42.674;23.284;2023-01-26T11:10:25;94617.66;;;4.95;56.76
15056;BME280;7626;42.674;23.284;2023-01-26T11:13:10;94616.81;;;4.95;56.28
15056;BME280;7626;42.674;23.284;2023-01-26T11:15:40;94601.91;;;5.02;56.92
15056;BME280;7626;42.674;23.284;2023-01-26T11:18:14;94604.66;;;4.98;56.73
15056;BME280;7626;42.674;23.284;2023-01-26T11:20:50;94602.09;;;4.98;56.57
15056;BME280;7626;42.674;23.284;2023-01-26T11:23:32;94592.78;;;4.96;56.47
15056;BME280;7626;42.674;23.284;2023-01-26T11:26:34;94584.75;;;5.02;56.56
15056;BME280;7626;42.674;23.284;2023-01-26T11:29:28;94577.69;;;5.06;57.00
15056;BME280;7626;42.674;23.284;2023-01-26T11:32:06;94578.44;;;5.08;56.82
15056;BME280;7626;42.674;23.284;2023-01-26T11:34:48;94574.06;;;5.10;56.54
15056;BME280;7626;42.674;23.284;2023-01-26T11:37:45;94576.63;;;5.10;56.29
15056;BME280;7626;42.674;23.284;2023-01-26T11:40:44;94578.16;;;5.12;56.46
15056;BME280;7626;42.674;23.284;2023-01-26T11:43:31;94576.25;;;5.16;56.22
15056;BME280;7626;42.674;23.284;2023-01-26T11:46:35;94560.28;;;5.11;56.39
15056;BME280;7626;42.674;23.284;2023-01-26T11:49:16;94552.38;;;5.14;56.38
15056;BME280;7626;42.674;23.284;2023-01-26T11:52:01;94561.69;;;5.16;56.49
15056;BME280;7626;42.674;23.284;2023-01-26T11:54:46;94550.47;;;5.18;56.44
15056;BME280;7626;42.674;23.284;2023-01-26T11:57:22;94554.78;;;5.17;56.37
15056;BME280;7626;42.674;23.284;2023-01-26T11:59:57;94549.56;;;5.19;56.51
15056;BME280;7626;42.674;23.284;2023-01-26T12:02:29;94547.97;;;5.16;56.41
15056;BME280;7626;42.674;23.284;2023-01-26T12:05:01;94550.47;;;5.18;57.01
15056;BME280;7626;42.674;23.284;2023-01-26T12:07:34;94543.09;;;5.11;56.49
15056;BME280;7626;42.674;23.284;2023-01-26T12:10:16;94544.94;;;5.09;57.42
15056;BME280;7626;42.674;23.284;2023-01-26T12:12:50;94528.44;;;5.13;56.67
15056;BME280;7626;42.674;23.284;2023-01-26T12:15:23;94542.63;;;5.05;56.70
15056;BME280;7626;42.674;23.284;2023-01-26T12:18:02;94515.13;;;5.07;56.82
15056;BME280;7626;42.674;23.284;2023-01-26T12:20:38;94515.94;;;5.07;57.20
15056;BME280;7626;42.674;23.284;2023-01-26T12:23:12;94494.50;;;5.08;57.27
15056;BME280;7626;42.674;23.284;2023-01-26T12:25:45;94490.34;;;5.06;57.61
15056;BME280;7626;42.674;23.284;2023-01-26T12:28:19;94488.69;;;5.05;57.38
15056;BME280;7626;42.674;23.284;2023-01-26T12:30:54;94507.50;;;5.05;57.05
15056;BME280;7626;42.674;23.284;2023-01-26T12:33:28;94487.69;;;5.07;57.30
15056;BME280;7626;42.674;23.284;2023-01-26T12:36:16;94485.13;;;5.07;57.50
15056;BME280;7626;42.674;23.284;2023-01-26T12:41:54;94481.72;;;5.07;57.28
15056;BME280;7626;42.674;23.284;2023-01-26T12:44:34;94478.59;;;5.16;58.06
15056;BME280;7626;42.674;23.284;2023-01-26T12:47:06;94464.38;;;5.10;58.38
15056;BME280;7626;42.674;23.284;2023-01-26T12:49:47;94479.63;;;5.13;57.97
15056;BME280;7626;42.674;23.284;2023-01-26T12:52:22;94479.81;;;5.10;57.56
15056;BME280;7626;42.674;23.284;2023-01-26T12:54:57;94472.81;;;5.12;57.74
15056;BME280;7626;42.674;23.284;2023-01-26T12:57:34;94479.53;;;5.15;57.67
15056;BME280;7626;42.674;23.284;2023-01-26T13:00:16;94460.63;;;5.16;58.24
15056;BME280;7626;42.674;23.284;2023-01-26T13:02:45;94461.81;;;5.10;57.62
15056;BME280;7626;42.674;23.284;2023-01-26T13:05:29;94462.53;;;5.12;57.98
15056;BME280;7626;42.674;23.284;2023-01-26T13:14:29;94448.72;;;5.15;57.92
15056;BME280;7626;42.674;23.284;2023-01-26T13:16:58;94466.50;;;5.18;57.91
15056;BME280;7626;42.674;23.284;2023-01-26T13:20:14;94467.06;;;5.23;58.03
15056;BME280;7626;42.674;23.284;2023-01-26T13:22:44;94459.28;;;5.25;57.94
15056;BME280;7626;42.674;23.284;2023-01-26T13:25:17;94468.88;;;5.21;58.13
15056;BME280;7626;42.674;23.284;2023-01-26T13:27:54;94458.16;;;5.29;57.99
15056;BME280;7626;42.674;23.284;2023-01-26T13:30:42;94450.63;;;5.26;58.63
15056;BME280;7626;42.674;23.284;2023-01-26T13:33:17;94441.19;;;5.26;58.67
15056;BME280;7626;42.674;23.284;2023-01-26T13:35:52;94433.56;;;5.25;58.18
15056;BME280;7626;42.674;23.284;2023-01-26T13:38:27;94438.50;;;5.28;58.25
15056;BME280;7626;42.674;23.284;2023-01-26T13:40:57;94436.69;;;5.30;58.39
15056;BME280;7626;42.674;23.284;2023-01-26T13:43:30;94437.88;;;5.24;58.55
15056;BME280;7626;42.674;23.284;2023-01-26T13:46:04;94448.41;;;5.34;58.69